BLQ weather

Bologna Guglielmo Marconi Airport
Bologna, Emilia-Romagna, Italy

Public forecast

Using degrees Celsius for public forecast. Weather courtesy of forecast.io.

METAR (pilot weather report)

Retrieved 2018/05/21 08:20 UTC (25 minutes ago):

LIPE 210820Z VRB03KT 9999 FEW070 21/14 Q1015

TAF (pilot weather forecast)

Retrieved 2018/05/21 06:23 UTC (2 hours ago):

TAF LIPE 210500Z 2106/2206 VRB06KT 9999 FEW050